sensor_id;sensor_type;location;lat;lon;timestamp;pressure;altitude;pressure_sealevel;temperature;humidity
61345;BME280;47216;42.656;23.232;2023-03-13T00:00:55;94104.47;;;1.82;56.39
61345;BME280;47216;42.656;23.232;2023-03-13T00:03:24;94097.94;;;1.80;56.27
61345;BME280;47216;42.656;23.232;2023-03-13T00:05:54;94099.59;;;1.87;57.08
61345;BME280;47216;42.656;23.232;2023-03-13T00:08:21;94103.53;;;1.83;56.88
61345;BME280;47216;42.656;23.232;2023-03-13T00:10:48;94105.53;;;1.88;56.58
61345;BME280;47216;42.656;23.232;2023-03-13T00:13:15;94105.03;;;1.78;56.50
61345;BME280;47216;42.656;23.232;2023-03-13T00:15:41;94101.50;;;1.79;56.82
61345;BME280;47216;42.656;23.232;2023-03-13T00:18:08;94106.25;;;1.82;56.70
61345;BME280;47216;42.656;23.232;2023-03-13T00:20:36;94109.44;;;1.84;56.07
61345;BME280;47216;42.656;23.232;2023-03-13T00:23:03;94099.91;;;1.78;56.42
61345;BME280;47216;42.656;23.232;2023-03-13T00:25:30;94112.28;;;1.67;56.63
61345;BME280;47216;42.656;23.232;2023-03-13T00:27:56;94094.88;;;1.63;56.83
61345;BME280;47216;42.656;23.232;2023-03-13T00:30:23;94113.28;;;1.66;56.72
61345;BME280;47216;42.656;23.232;2023-03-13T00:32:50;94094.25;;;1.61;57.16
61345;BME280;47216;42.656;23.232;2023-03-13T00:35:17;94116.44;;;1.68;56.93
61345;BME280;47216;42.656;23.232;2023-03-13T00:37:45;94118.03;;;1.70;56.91
61345;BME280;47216;42.656;23.232;2023-03-13T00:40:12;94118.44;;;1.66;57.02
61345;BME280;47216;42.656;23.232;2023-03-13T00:42:39;94116.41;;;1.62;57.54
61345;BME280;47216;42.656;23.232;2023-03-13T00:45:06;94115.59;;;1.61;57.26
61345;BME280;47216;42.656;23.232;2023-03-13T00:47:33;94120.25;;;1.51;57.39
61345;BME280;47216;42.656;23.232;2023-03-13T00:50:00;94118.31;;;1.53;57.49
61345;BME280;47216;42.656;23.232;2023-03-13T00:52:26;94107.19;;;1.46;57.39
61345;BME280;47216;42.656;23.232;2023-03-13T00:54:55;94109.13;;;1.44;58.26
61345;BME280;47216;42.656;23.232;2023-03-13T00:57:21;94107.19;;;1.46;57.88
61345;BME280;47216;42.656;23.232;2023-03-13T00:59:48;94115.50;;;1.48;57.73
61345;BME280;47216;42.656;23.232;2023-03-13T01:02:15;94112.88;;;1.41;58.36
61345;BME280;47216;42.656;23.232;2023-03-13T01:04:42;94109.13;;;1.44;57.84
61345;BME280;47216;42.656;23.232;2023-03-13T01:07:09;94113.91;;;1.47;57.75
61345;BME280;47216;42.656;23.232;2023-03-13T01:09:35;94101.66;;;1.49;58.04
61345;BME280;47216;42.656;23.232;2023-03-13T01:12:04;94102.66;;;1.48;57.93
61345;BME280;47216;42.656;23.232;2023-03-13T01:14:31;94099.72;;;1.51;58.23
61345;BME280;47216;42.656;23.232;2023-03-13T01:16:57;94093.84;;;1.57;57.70
61345;BME280;47216;42.656;23.232;2023-03-13T01:19:24;94093.84;;;1.57;57.77
61345;BME280;47216;42.656;23.232;2023-03-13T01:21:51;94093.56;;;1.52;57.46
61345;BME280;47216;42.656;23.232;2023-03-13T01:24:18;94104.13;;;1.57;57.76
61345;BME280;47216;42.656;23.232;2023-03-13T01:26:44;94108.09;;;1.60;57.93
61345;BME280;47216;42.656;23.232;2023-03-13T01:29:13;94118.00;;;1.63;57.69
61345;BME280;47216;42.656;23.232;2023-03-13T01:31:40;94116.81;;;1.65;57.42
61345;BME280;47216;42.656;23.232;2023-03-13T01:34:07;94118.00;;;1.63;57.29
61345;BME280;47216;42.656;23.232;2023-03-13T01:36:36;94119.63;;;1.71;57.44
61345;BME280;47216;42.656;23.232;2023-03-13T01:39:03;94126.38;;;1.72;57.20
61345;BME280;47216;42.656;23.232;2023-03-13T01:41:30;94126.50;;;1.63;57.11
61345;BME280;47216;42.656;23.232;2023-03-13T01:43:57;94123.56;;;1.66;57.18
61345;BME280;47216;42.656;23.232;2023-03-13T01:46:26;94126.50;;;1.42;58.01
61345;BME280;47216;42.656;23.232;2023-03-13T01:48:56;94128.09;;;1.43;58.13
61345;BME280;47216;42.656;23.232;2023-03-13T01:51:26;94127.47;;;1.41;58.55
61345;BME280;47216;42.656;23.232;2023-03-13T01:53:58;94124.31;;;1.39;58.25
61345;BME280;47216;42.656;23.232;2023-03-13T01:56:33;94124.88;;;1.34;58.15
61345;BME280;47216;42.656;23.232;2023-03-13T01:59:03;94128.34;;;1.26;58.51
61345;BME280;47216;42.656;23.232;2023-03-13T02:01:34;94121.47;;;1.12;58.79
61345;BME280;47216;42.656;23.232;2023-03-13T02:04:01;94120.00;;;1.03;59.08
61345;BME280;47216;42.656;23.232;2023-03-13T02:06:30;94122.19;;;1.06;59.31
61345;BME280;47216;42.656;23.232;2023-03-13T02:09:01;94115.09;;;1.08;59.32
61345;BME280;47216;42.656;23.232;2023-03-13T02:11:36;94117.44;;;1.03;59.15
61345;BME280;47216;42.656;23.232;2023-03-13T02:14:08;94128.38;;;0.90;59.27
61345;BME280;47216;42.656;23.232;2023-03-13T02:16:36;94134.63;;;0.88;59.63
61345;BME280;47216;42.656;23.232;2023-03-13T02:19:10;94138.63;;;0.90;59.67
61345;BME280;47216;42.656;23.232;2023-03-13T02:21:47;94144.22;;;0.64;60.50
61345;BME280;47216;42.656;23.232;2023-03-13T02:24:22;94148.94;;;0.60;60.27
61345;BME280;47216;42.656;23.232;2023-03-13T02:26:54;94141.41;;;0.59;60.74
61345;BME280;47216;42.656;23.232;2023-03-13T02:29:22;94149.81;;;0.68;60.45
61345;BME280;47216;42.656;23.232;2023-03-13T02:31:50;94155.19;;;0.73;60.05
61345;BME280;47216;42.656;23.232;2023-03-13T02:34:21;94159.63;;;0.79;59.54
61345;BME280;47216;42.656;23.232;2023-03-13T02:36:51;94170.06;;;0.77;59.66
61345;BME280;47216;42.656;23.232;2023-03-13T02:39:19;94161.25;;;0.65;60.11
61345;BME280;47216;42.656;23.232;2023-03-13T02:41:47;94170.25;;;0.46;60.63
61345;BME280;47216;42.656;23.232;2023-03-13T02:44:16;94179.91;;;0.44;60.81
61345;BME280;47216;42.656;23.232;2023-03-13T02:46:44;94178.47;;;0.41;60.21
61345;BME280;47216;42.656;23.232;2023-03-13T02:49:23;94187.22;;;0.32;61.19
61345;BME280;47216;42.656;23.232;2023-03-13T02:51:52;94193.59;;;0.36;60.56
61345;BME280;47216;42.656;23.232;2023-03-13T02:54:21;94193.97;;;0.33;60.60
61345;BME280;47216;42.656;23.232;2023-03-13T02:56:52;94185.63;;;0.31;60.88
61345;BME280;47216;42.656;23.232;2023-03-13T02:59:21;94188.56;;;0.28;61.27
61345;BME280;47216;42.656;23.232;2023-03-13T03:01:48;94188.03;;;0.33;61.58
61345;BME280;47216;42.656;23.232;2023-03-13T03:04:17;94184.06;;;0.30;61.39
61345;BME280;47216;42.656;23.232;2023-03-13T03:06:44;94178.13;;;0.30;61.13
61345;BME280;47216;42.656;23.232;2023-03-13T03:09:11;94179.16;;;0.20;60.93
61345;BME280;47216;42.656;23.232;2023-03-13T03:11:38;94174.47;;;0.09;61.22
61345;BME280;47216;42.656;23.232;2023-03-13T03:14:05;94194.00;;;0.10;61.43
61345;BME280;47216;42.656;23.232;2023-03-13T03:16:33;94198.53;;;0.23;61.24
61345;BME280;47216;42.656;23.232;2023-03-13T03:19:00;94199.56;;;0.14;61.72
61345;BME280;47216;42.656;23.232;2023-03-13T03:21:27;94218.66;;;0.11;61.96
61345;BME280;47216;42.656;23.232;2023-03-13T03:23:54;94228.41;;;0.16;60.60
61345;BME280;47216;42.656;23.232;2023-03-13T03:26:21;94227.31;;;-0.05;61.46
61345;BME280;47216;42.656;23.232;2023-03-13T03:28:47;94234.03;;;-0.04;62.11
61345;BME280;47216;42.656;23.232;2023-03-13T03:31:14;94231.56;;;0.03;61.14
61345;BME280;47216;42.656;23.232;2023-03-13T03:33:43;94230.03;;;-0.06;61.19
61345;BME280;47216;42.656;23.232;2023-03-13T03:36:12;94227.91;;;-0.03;61.46
61345;BME280;47216;42.656;23.232;2023-03-13T03:38:39;94226.69;;;-0.07;61.48
61345;BME280;47216;42.656;23.232;2023-03-13T03:41:07;94236.44;;;-0.25;61.57
61345;BME280;47216;42.656;23.232;2023-03-13T03:43:34;94246.44;;;-0.38;62.18
61345;BME280;47216;42.656;23.232;2023-03-13T03:46:01;94253.50;;;-0.40;62.20
61345;BME280;47216;42.656;23.232;2023-03-13T03:48:28;94263.41;;;-0.37;62.86
61345;BME280;47216;42.656;23.232;2023-03-13T03:50:56;94271.38;;;-0.32;62.25
61345;BME280;47216;42.656;23.232;2023-03-13T03:53:24;94264.03;;;-0.35;62.40
61345;BME280;47216;42.656;23.232;2023-03-13T03:55:50;94256.63;;;-0.30;62.56
61345;BME280;47216;42.656;23.232;2023-03-13T03:58:17;94262.06;;;-0.25;62.46
61345;BME280;47216;42.656;23.232;2023-03-13T04:00:44;94261.44;;;-0.27;61.80
61345;BME280;47216;42.656;23.232;2023-03-13T04:03:12;94267.19;;;-0.25;61.42
61345;BME280;47216;42.656;23.232;2023-03-13T04:05:39;94261.47;;;-0.35;61.89
61345;BME280;47216;42.656;23.232;2023-03-13T04:08:08;94270.06;;;-0.28;62.76
61345;BME280;47216;42.656;23.232;2023-03-13T04:10:35;94278.09;;;-0.31;62.16
61345;BME280;47216;42.656;23.232;2023-03-13T04:13:01;94281.28;;;-0.29;62.46
61345;BME280;47216;42.656;23.232;2023-03-13T04:15:28;94286.19;;;-0.19;61.97
61345;BME280;47216;42.656;23.232;2023-03-13T04:17:55;94288.88;;;-0.13;61.17
61345;BME280;47216;42.656;23.232;2023-03-13T04:20:22;94280.50;;;-0.07;61.13
61345;BME280;47216;42.656;23.232;2023-03-13T04:22:49;94291.66;;;0.01;60.21
61345;BME280;47216;42.656;23.232;2023-03-13T04:25:17;94297.94;;;-0.02;60.88
61345;BME280;47216;42.656;23.232;2023-03-13T04:27:44;94301.91;;;0.01;61.04
61345;BME280;47216;42.656;23.232;2023-03-13T04:30:11;94300.00;;;0.03;60.86
61345;BME280;47216;42.656;23.232;2023-03-13T04:32:38;94300.09;;;-0.14;61.65
61345;BME280;47216;42.656;23.232;2023-03-13T04:35:05;94314.03;;;-0.16;61.36
61345;BME280;47216;42.656;23.232;2023-03-13T04:37:33;94311.03;;;-0.20;61.78
61345;BME280;47216;42.656;23.232;2023-03-13T04:40:00;94324.13;;;-0.15;61.70
61345;BME280;47216;42.656;23.232;2023-03-13T04:42:28;94328.91;;;-0.12;61.85
61345;BME280;47216;42.656;23.232;2023-03-13T04:44:55;94338.84;;;-0.09;61.54
61345;BME280;47216;42.656;23.232;2023-03-13T04:47:21;94334.03;;;-0.12;61.15
61345;BME280;47216;42.656;23.232;2023-03-13T04:49:48;94339.16;;;-0.12;61.38
61345;BME280;47216;42.656;23.232;2023-03-13T04:52:15;94335.66;;;-0.19;61.43
61345;BME280;47216;42.656;23.232;2023-03-13T04:54:42;94336.75;;;-0.36;61.54
61345;BME280;47216;42.656;23.232;2023-03-13T04:57:08;94342.25;;;-0.56;62.30
61345;BME280;47216;42.656;23.232;2023-03-13T04:59:37;94342.94;;;-0.62;63.02
61345;BME280;47216;42.656;23.232;2023-03-13T05:02:03;94343.06;;;-0.55;63.05
61345;BME280;47216;42.656;23.232;2023-03-13T05:04:30;94330.16;;;-0.70;63.62
61345;BME280;47216;42.656;23.232;2023-03-13T05:06:57;94338.47;;;-0.68;63.58
61345;BME280;47216;42.656;23.232;2023-03-13T05:09:24;94333.00;;;-0.65;64.27
61345;BME280;47216;42.656;23.232;2023-03-13T05:11:51;94339.75;;;-0.64;64.27
61345;BME280;47216;42.656;23.232;2023-03-13T05:14:18;94339.59;;;-0.71;64.44
61345;BME280;47216;42.656;23.232;2023-03-13T05:16:46;94344.06;;;-0.65;64.48
61345;BME280;47216;42.656;23.232;2023-03-13T05:19:13;94350.56;;;-0.54;63.94
61345;BME280;47216;42.656;23.232;2023-03-13T05:21:40;94351.84;;;-0.50;63.58
61345;BME280;47216;42.656;23.232;2023-03-13T05:24:07;94351.84;;;-0.50;63.71
61345;BME280;47216;42.656;23.232;2023-03-13T05:26:34;94357.31;;;-0.53;64.17
61345;BME280;47216;42.656;23.232;2023-03-13T05:29:00;94356.75;;;-0.40;64.08
61345;BME280;47216;42.656;23.232;2023-03-13T05:31:27;94368.97;;;-0.19;63.16
61345;BME280;47216;42.656;23.232;2023-03-13T05:33:55;94362.72;;;-0.16;63.12
61345;BME280;47216;42.656;23.232;2023-03-13T05:36:22;94357.22;;;-0.05;63.10
61345;BME280;47216;42.656;23.232;2023-03-13T05:38:49;94366.97;;;0.23;62.91
61345;BME280;47216;42.656;23.232;2023-03-13T05:41:15;94374.41;;;0.40;62.71
61345;BME280;47216;42.656;23.232;2023-03-13T05:43:42;94375.13;;;0.49;62.21
61345;BME280;47216;42.656;23.232;2023-03-13T05:46:09;94363.44;;;0.70;62.00
61345;BME280;47216;42.656;23.232;2023-03-13T05:48:36;94369.22;;;0.87;62.08
61345;BME280;47216;42.656;23.232;2023-03-13T05:51:04;94377.75;;;1.02;61.45
61345;BME280;47216;42.656;23.232;2023-03-13T05:53:31;94378.28;;;1.12;61.05
61345;BME280;47216;42.656;23.232;2023-03-13T05:55:58;94374.28;;;1.24;61.13
61345;BME280;47216;42.656;23.232;2023-03-13T05:58:24;94375.97;;;1.47;60.62
61345;BME280;47216;42.656;23.232;2023-03-13T06:00:51;94380.06;;;1.56;60.42
61345;BME280;47216;42.656;23.232;2023-03-13T06:03:18;94385.38;;;1.70;59.95
61345;BME280;47216;42.656;23.232;2023-03-13T06:05:45;94383.22;;;1.88;59.63
61345;BME280;47216;42.656;23.232;2023-03-13T06:08:13;94389.72;;;2.05;59.31
61345;BME280;47216;42.656;23.232;2023-03-13T06:10:40;94390.13;;;2.24;58.22
61345;BME280;47216;42.656;23.232;2023-03-13T06:13:06;94378.63;;;2.41;57.70
61345;BME280;47216;42.656;23.232;2023-03-13T06:15:33;94372.84;;;2.61;59.07
61345;BME280;47216;42.656;23.232;2023-03-13T06:18:00;94367.09;;;2.80;58.62
61345;BME280;47216;42.656;23.232;2023-03-13T06:20:26;94380.91;;;3.01;57.15
61345;BME280;47216;42.656;23.232;2023-03-13T06:22:53;94380.00;;;3.15;55.61
61345;BME280;47216;42.656;23.232;2023-03-13T06:25:21;94370.16;;;3.25;53.17
61345;BME280;47216;42.656;23.232;2023-03-13T06:27:50;94377.38;;;3.36;53.00
61345;BME280;47216;42.656;23.232;2023-03-13T06:30:17;94370.69;;;3.49;51.78
61345;BME280;47216;42.656;23.232;2023-03-13T06:32:44;94366.19;;;3.57;52.35
61345;BME280;47216;42.656;23.232;2023-03-13T06:35:10;94367.81;;;3.65;51.80
61345;BME280;47216;42.656;23.232;2023-03-13T06:37:37;94366.06;;;3.72;51.96
61345;BME280;47216;42.656;23.232;2023-03-13T06:40:05;94357.19;;;3.82;52.04
61345;BME280;47216;42.656;23.232;2023-03-13T06:42:34;94353.63;;;3.89;51.32
61345;BME280;47216;42.656;23.232;2023-03-13T06:45:01;94360.56;;;3.89;49.57
61345;BME280;47216;42.656;23.232;2023-03-13T06:47:29;94367.50;;;3.82;49.69
61345;BME280;47216;42.656;23.232;2023-03-13T06:49:56;94369.09;;;3.89;50.66
61345;BME280;47216;42.656;23.232;2023-03-13T06:52:23;94372.53;;;4.03;50.59
61345;BME280;47216;42.656;23.232;2023-03-13T06:54:50;94366.59;;;4.09;51.24
61345;BME280;47216;42.656;23.232;2023-03-13T06:57:17;94364.44;;;4.19;51.23
61345;BME280;47216;42.656;23.232;2023-03-13T06:59:45;94365.03;;;4.21;51.31
61345;BME280;47216;42.656;23.232;2023-03-13T07:02:14;94362.84;;;4.32;50.68
61345;BME280;47216;42.656;23.232;2023-03-13T07:04:41;94370.44;;;4.40;50.91
61345;BME280;47216;42.656;23.232;2023-03-13T07:07:08;94359.91;;;4.48;50.18
61345;BME280;47216;42.656;23.232;2023-03-13T07:09:35;94365.91;;;4.55;49.66
61345;BME280;47216;42.656;23.232;2023-03-13T07:12:02;94361.13;;;4.59;49.65
61345;BME280;47216;42.656;23.232;2023-03-13T07:14:29;94364.91;;;4.70;49.79
61345;BME280;47216;42.656;23.232;2023-03-13T07:16:58;94367.50;;;4.76;49.36
61345;BME280;47216;42.656;23.232;2023-03-13T07:19:25;94360.72;;;4.75;49.94
61345;BME280;47216;42.656;23.232;2023-03-13T07:21:52;94359.94;;;4.81;49.93
61345;BME280;47216;42.656;23.232;2023-03-13T07:24:21;94358.75;;;4.91;49.68
61345;BME280;47216;42.656;23.232;2023-03-13T07:26:48;94352.78;;;4.77;50.39
61345;BME280;47216;42.656;23.232;2023-03-13T07:29:14;94357.19;;;4.83;50.00
61345;BME280;47216;42.656;23.232;2023-03-13T07:31:41;94358.56;;;4.79;49.70
61345;BME280;47216;42.656;23.232;2023-03-13T07:34:09;94354.38;;;4.91;49.45
61345;BME280;47216;42.656;23.232;2023-03-13T07:36:36;94355.94;;;4.99;49.12
61345;BME280;47216;42.656;23.232;2023-03-13T07:39:04;94360.13;;;4.87;49.64
61345;BME280;47216;42.656;23.232;2023-03-13T07:41:31;94356.56;;;4.94;49.12
61345;BME280;47216;42.656;23.232;2023-03-13T07:43:58;94357.16;;;5.03;49.07
61345;BME280;47216;42.656;23.232;2023-03-13T07:46:25;94366.31;;;4.92;49.25
61345;BME280;47216;42.656;23.232;2023-03-13T07:48:52;94366.28;;;5.05;48.68
61345;BME280;47216;42.656;23.232;2023-03-13T07:51:22;94364.31;;;5.14;48.94
61345;BME280;47216;42.656;23.232;2023-03-13T07:53:49;94349.56;;;5.21;48.87
61345;BME280;47216;42.656;23.232;2023-03-13T07:56:17;94358.72;;;5.31;48.99
61345;BME280;47216;42.656;23.232;2023-03-13T07:58:45;94355.94;;;5.32;49.24
61345;BME280;47216;42.656;23.232;2023-03-13T08:01:13;94347.56;;;5.30;48.44
61345;BME280;47216;42.656;23.232;2023-03-13T08:03:41;94341.19;;;5.46;48.51
61345;BME280;47216;42.656;23.232;2023-03-13T08:06:11;94344.91;;;5.57;48.13
61345;BME280;47216;42.656;23.232;2023-03-13T08:08:39;94340.16;;;5.54;47.63
61345;BME280;47216;42.656;23.232;2023-03-13T08:11:08;94344.91;;;5.57;47.17
61345;BME280;47216;42.656;23.232;2023-03-13T08:13:36;94344.75;;;5.45;47.41
61345;BME280;47216;42.656;23.232;2023-03-13T08:16:04;94350.69;;;5.59;47.84
61345;BME280;47216;42.656;23.232;2023-03-13T08:18:32;94345.13;;;5.62;47.55
61345;BME280;47216;42.656;23.232;2023-03-13T08:21:01;94339.94;;;5.62;47.16
61345;BME280;47216;42.656;23.232;2023-03-13T08:23:28;94341.16;;;5.59;47.23
61345;BME280;47216;42.656;23.232;2023-03-13T08:26:00;94348.47;;;5.69;47.29
61345;BME280;47216;42.656;23.232;2023-03-13T08:28:27;94351.03;;;5.82;47.65
61345;BME280;47216;42.656;23.232;2023-03-13T08:30:54;94350.19;;;5.88;47.24
61345;BME280;47216;42.656;23.232;2023-03-13T08:33:20;94360.34;;;5.97;47.71
61345;BME280;47216;42.656;23.232;2023-03-13T08:35:47;94360.69;;;6.07;47.51
61345;BME280;47216;42.656;23.232;2023-03-13T08:38:14;94363.81;;;6.22;47.69
61345;BME280;47216;42.656;23.232;2023-03-13T08:40:41;94353.69;;;6.14;46.83
61345;BME280;47216;42.656;23.232;2023-03-13T08:43:09;94355.22;;;6.28;47.41
61345;BME280;47216;42.656;23.232;2023-03-13T08:45:36;94352.41;;;6.30;46.69
61345;BME280;47216;42.656;23.232;2023-03-13T08:48:03;94345.03;;;6.34;46.96
61345;BME280;47216;42.656;23.232;2023-03-13T08:50:29;94343.28;;;6.21;47.26
61345;BME280;47216;42.656;23.232;2023-03-13T08:52:56;94350.34;;;6.07;47.76
61345;BME280;47216;42.656;23.232;2023-03-13T08:55:23;94356.53;;;5.93;47.04
61345;BME280;47216;42.656;23.232;2023-03-13T08:57:50;94351.28;;;6.19;46.50
61345;BME280;47216;42.656;23.232;2023-03-13T09:00:19;94354.38;;;6.35;46.71
61345;BME280;47216;42.656;23.232;2023-03-13T09:02:45;94350.59;;;6.30;46.02
61345;BME280;47216;42.656;23.232;2023-03-13T09:05:12;94341.59;;;6.40;46.02
61345;BME280;47216;42.656;23.232;2023-03-13T09:07:39;94344.53;;;6.50;45.77
61345;BME280;47216;42.656;23.232;2023-03-13T09:10:07;94338.91;;;6.53;45.07
61345;BME280;47216;42.656;23.232;2023-03-13T09:12:34;94352.31;;;6.50;45.21
61345;BME280;47216;42.656;23.232;2023-03-13T09:15:00;94339.94;;;6.52;45.80
61345;BME280;47216;42.656;23.232;2023-03-13T09:17:28;94334.72;;;6.59;46.01
61345;BME280;47216;42.656;23.232;2023-03-13T09:19:55;94323.81;;;6.75;45.42
61345;BME280;47216;42.656;23.232;2023-03-13T09:22:22;94332.63;;;6.67;45.61
61345;BME280;47216;42.656;23.232;2023-03-13T09:24:49;94331.69;;;6.87;45.57
61345;BME280;47216;42.656;23.232;2023-03-13T09:27:15;94334.59;;;6.97;45.39
61345;BME280;47216;42.656;23.232;2023-03-13T09:29:42;94332.34;;;7.07;44.76
61345;BME280;47216;42.656;23.232;2023-03-13T09:32:09;94335.91;;;7.06;45.20
61345;BME280;47216;42.656;23.232;2023-03-13T09:34:37;94342.06;;;6.87;46.26
61345;BME280;47216;42.656;23.232;2023-03-13T09:37:04;94334.75;;;7.02;46.07
61345;BME280;47216;42.656;23.232;2023-03-13T09:39:31;94341.53;;;7.03;46.47
61345;BME280;47216;42.656;23.232;2023-03-13T09:42:02;94339.41;;;7.19;46.85
61345;BME280;47216;42.656;23.232;2023-03-13T09:44:39;94334.03;;;7.39;46.19
61345;BME280;47216;42.656;23.232;2023-03-13T09:47:11;94327.03;;;7.57;45.24
61345;BME280;47216;42.656;23.232;2023-03-13T09:49:43;94323.31;;;7.53;45.99
61345;BME280;47216;42.656;23.232;2023-03-13T09:52:15;94322.88;;;7.56;45.31
61345;BME280;47216;42.656;23.232;2023-03-13T09:54:46;94318.09;;;7.72;44.73
61345;BME280;47216;42.656;23.232;2023-03-13T09:57:19;94321.63;;;7.77;44.48
61345;BME280;47216;42.656;23.232;2023-03-13T09:59:51;94322.00;;;7.81;44.48
61345;BME280;47216;42.656;23.232;2023-03-13T10:02:29;94319.94;;;7.83;45.14
61345;BME280;47216;42.656;23.232;2023-03-13T10:05:13;94318.44;;;7.94;44.84
61345;BME280;47216;42.656;23.232;2023-03-13T10:07:41;94321.97;;;7.99;45.60
61345;BME280;47216;42.656;23.232;2023-03-13T10:10:14;94315.00;;;8.12;46.07
61345;BME280;47216;42.656;23.232;2023-03-13T10:12:44;94313.69;;;8.21;45.43
61345;BME280;47216;42.656;23.232;2023-03-13T10:15:22;94306.16;;;8.31;44.62
61345;BME280;47216;42.656;23.232;2023-03-13T10:17:53;94301.53;;;8.33;45.09
61345;BME280;47216;42.656;23.232;2023-03-13T10:20:24;94300.06;;;8.37;44.50
61345;BME280;47216;42.656;23.232;2023-03-13T10:22:56;94286.78;;;8.46;45.02
61345;BME280;47216;42.656;23.232;2023-03-13T10:25:27;94292.44;;;8.43;44.04
61345;BME280;47216;42.656;23.232;2023-03-13T10:27:55;94278.44;;;8.44;44.01
61345;BME280;47216;42.656;23.232;2023-03-13T10:30:24;94278.06;;;8.40;43.36
61345;BME280;47216;42.656;23.232;2023-03-13T10:32:54;94282.91;;;8.36;44.46
61345;BME280;47216;42.656;23.232;2023-03-13T10:35:31;94279.44;;;8.43;44.97
61345;BME280;47216;42.656;23.232;2023-03-13T10:38:01;94269.31;;;8.53;43.43
61345;BME280;47216;42.656;23.232;2023-03-13T10:40:28;94265.91;;;8.64;43.45
61345;BME280;47216;42.656;23.232;2023-03-13T10:43:01;94262.41;;;8.70;43.44
61345;BME280;47216;42.656;23.232;2023-03-13T10:45:32;94254.28;;;8.78;43.14
61345;BME280;47216;42.656;23.232;2023-03-13T10:48:02;94250.91;;;8.90;43.80
61345;BME280;47216;42.656;23.232;2023-03-13T10:50:33;94247.63;;;8.94;43.68
61345;BME280;47216;42.656;23.232;2023-03-13T10:53:19;94244.88;;;9.01;44.64
61345;BME280;47216;42.656;23.232;2023-03-13T10:55:47;94241.94;;;9.09;44.04
61345;BME280;47216;42.656;23.232;2023-03-13T10:58:18;94243.53;;;9.22;42.33
61345;BME280;47216;42.656;23.232;2023-03-13T11:00:46;94245.44;;;9.27;42.70
61345;BME280;47216;42.656;23.232;2023-03-13T11:03:16;94235.03;;;9.27;42.79
61345;BME280;47216;42.656;23.232;2023-03-13T11:05:54;94228.34;;;9.31;43.41
61345;BME280;47216;42.656;23.232;2023-03-13T11:08:23;94231.59;;;9.38;44.50
61345;BME280;47216;42.656;23.232;2023-03-13T11:10:52;94220.38;;;9.49;42.48
61345;BME280;47216;42.656;23.232;2023-03-13T11:13:32;94215.94;;;9.50;43.78
61345;BME280;47216;42.656;23.232;2023-03-13T11:16:04;94223.41;;;9.58;43.11
61345;BME280;47216;42.656;23.232;2023-03-13T11:18:38;94221.16;;;9.61;43.03
61345;BME280;47216;42.656;23.232;2023-03-13T11:21:16;94217.84;;;9.66;42.26
61345;BME280;47216;42.656;23.232;2023-03-13T11:23:49;94208.38;;;9.77;42.63
61345;BME280;47216;42.656;23.232;2023-03-13T11:26:25;94206.56;;;9.77;42.29
61345;BME280;47216;42.656;23.232;2023-03-13T11:28:59;94202.81;;;9.85;41.48
61345;BME280;47216;42.656;23.232;2023-03-13T11:31:32;94199.72;;;9.71;41.41
61345;BME280;47216;42.656;23.232;2023-03-13T11:34:05;94196.41;;;9.76;42.15
61345;BME280;47216;42.656;23.232;2023-03-13T11:36:39;94192.41;;;9.85;43.05
61345;BME280;47216;42.656;23.232;2023-03-13T11:39:36;94187.00;;;10.03;40.76
61345;BME280;47216;42.656;23.232;2023-03-13T11:42:07;94185.09;;;9.99;42.23
61345;BME280;47216;42.656;23.232;2023-03-13T11:44:47;94169.19;;;10.00;43.40
61345;BME280;47216;42.656;23.232;2023-03-13T11:47:27;94172.47;;;10.07;43.13
61345;BME280;47216;42.656;23.232;2023-03-13T11:50:04;94165.66;;;10.23;42.34
61345;BME280;47216;42.656;23.232;2023-03-13T11:52:44;94169.31;;;10.39;41.86
61345;BME280;47216;42.656;23.232;2023-03-13T11:55:22;94158.75;;;10.46;41.70
61345;BME280;47216;42.656;23.232;2023-03-13T11:57:58;94162.22;;;10.51;41.96
61345;BME280;47216;42.656;23.232;2023-03-13T12:00:30;94152.88;;;10.56;42.22
61345;BME280;47216;42.656;23.232;2023-03-13T12:03:05;94145.69;;;10.63;40.99
61345;BME280;47216;42.656;23.232;2023-03-13T12:05:39;94144.06;;;10.79;41.97
61345;BME280;47216;42.656;23.232;2023-03-13T12:08:13;94135.41;;;10.95;39.99
61345;BME280;47216;42.656;23.232;2023-03-13T12:10:45;94141.25;;;11.02;40.33
61345;BME280;47216;42.656;23.232;2023-03-13T12:13:16;94137.28;;;11.00;40.11
61345;BME280;47216;42.656;23.232;2023-03-13T12:15:48;94122.13;;;10.97;40.94
61345;BME280;47216;42.656;23.232;2023-03-13T12:18:19;94116.19;;;11.01;40.88
61345;BME280;47216;42.656;23.232;2023-03-13T12:20:53;94120.81;;;11.16;39.57
61345;BME280;47216;42.656;23.232;2023-03-13T12:23:28;94126.13;;;11.04;40.79
61345;BME280;47216;42.656;23.232;2023-03-13T12:26:03;94119.53;;;11.19;38.98
61345;BME280;47216;42.656;23.232;2023-03-13T12:28:36;94126.88;;;11.22;39.86
61345;BME280;47216;42.656;23.232;2023-03-13T12:31:11;94116.66;;;11.20;39.68
61345;BME280;47216;42.656;23.232;2023-03-13T12:33:42;94127.28;;;11.35;39.61
61345;BME280;47216;42.656;23.232;2023-03-13T12:36:13;94119.75;;;11.39;39.01
61345;BME280;47216;42.656;23.232;2023-03-13T12:38:47;94105.78;;;11.28;39.08
61345;BME280;47216;42.656;23.232;2023-03-13T12:41:19;94112.75;;;11.45;38.80
61345;BME280;47216;42.656;23.232;2023-03-13T12:43:51;94116.94;;;11.46;39.55
61345;BME280;47216;42.656;23.232;2023-03-13T12:46:33;94121.09;;;11.42;39.63
61345;BME280;47216;42.656;23.232;2023-03-13T12:52:26;94120.53;;;11.40;39.13
61345;BME280;47216;42.656;23.232;2023-03-13T12:55:17;94120.63;;;11.50;40.09
61345;BME280;47216;42.656;23.232;2023-03-13T12:58:16;94125.66;;;11.56;39.25
61345;BME280;47216;42.656;23.232;2023-03-13T13:00:46;94118.75;;;11.72;39.95
61345;BME280;47216;42.656;23.232;2023-03-13T13:03:21;94114.13;;;11.80;39.36
61345;BME280;47216;42.656;23.232;2023-03-13T13:06:04;94115.34;;;11.99;39.36
61345;BME280;47216;42.656;23.232;2023-03-13T13:08:37;94119.06;;;12.03;38.46
61345;BME280;47216;42.656;23.232;2023-03-13T13:14:55;94118.63;;;12.16;37.62